Time;durP1;ratioP1;P1;durP2;ratioP2;P2;SDS_P1;SDS_P2;PMS_P1;PMS_P2;Temp;Humidity;BMP_temperature;BMP_pressure;BME280_temperature;BME280_humidity;BME280_pressure;Samples;Min_cycle;Max_cycle;Signal;HPM_P1;HPM_P2
2021/11/07 00:00:52;;;;;;;15.07;10.50;;;;;;;8.61;100.00;101120.91;5026938;28;20036;-82
2021/11/07 00:05:51;;;;;;;18.92;10.95;;;;;;;8.44;100.00;101083.03;5028429;28;20041;-83
2021/11/07 00:08:37;;;;;;;17.33;11.57;;;;;;;8.37;100.00;101061.78;5029881;28;20509;-84
2021/11/07 00:11:07;;;;;;;23.08;12.40;;;;;;;8.54;100.00;101095.25;5019567;28;20043;-83
2021/11/07 00:13:33;;;;;;;19.13;11.88;;;;;;;8.49;100.00;101088.75;5054679;28;20079;-84
2021/11/07 00:16:05;;;;;;;19.23;14.10;;;;;;;8.43;100.00;101076.16;5008814;28;20115;-86
2021/11/07 00:18:41;;;;;;;19.63;13.43;;;;;;;8.38;100.00;101074.72;5026325;28;20094;-84
2021/11/07 00:21:12;;;;;;;16.27;13.52;;;;;;;8.39;100.00;101071.16;5036152;28;20095;-83
2021/11/07 00:26:34;;;;;;;19.73;13.88;;;;;;;8.32;100.00;101058.69;5039490;28;20475;-85
2021/11/07 00:29:10;;;;;;;23.55;14.23;;;;;;;8.31;100.00;101057.06;5042202;28;20037;-84
2021/11/07 00:32:05;;;;;;;22.05;14.50;;;;;;;8.28;100.00;101046.84;5024103;28;20033;-84
2021/11/07 00:37:11;;;;;;;20.27;15.25;;;;;;;8.15;100.00;101013.84;5026741;28;20794;-84
2021/11/07 00:44:36;;;;;;;17.17;13.45;;;;;;;8.30;100.00;101019.63;5045923;28;20056;-83
2021/11/07 00:47:15;;;;;;;17.25;13.80;;;;;;;8.24;100.00;101008.84;5008985;28;20475;-84
2021/11/07 00:49:48;;;;;;;17.75;14.18;;;;;;;8.26;100.00;101001.72;5026276;28;20044;-83
2021/11/07 00:52:23;;;;;;;19.05;13.52;;;;;;;8.27;100.00;100995.50;5058619;28;20029;-84
2021/11/07 00:57:19;;;;;;;17.42;13.35;;;;;;;8.26;100.00;100976.41;5033515;28;20068;-84
2021/11/07 00:59:53;;;;;;;16.65;12.90;;;;;;;8.26;100.00;100983.41;5023906;28;20120;-84
2021/11/07 01:02:30;;;;;;;20.92;13.88;;;;;;;8.11;100.00;100957.56;5043425;28;20036;-85
2021/11/07 01:04:57;;;;;;;16.10;13.02;;;;;;;8.21;100.00;100949.81;5036320;28;20025;-86
2021/11/07 01:07:24;;;;;;;18.83;12.60;;;;;;;8.20;100.00;100942.94;5042595;28;20056;-85
2021/11/07 01:09:52;;;;;;;14.32;12.48;;;;;;;8.34;100.00;100958.31;5025159;28;20037;-84
2021/11/07 01:12:18;;;;;;;17.13;12.88;;;;;;;8.21;100.00;100949.00;5010571;28;20036;-85
2021/11/07 01:14:44;;;;;;;19.63;13.30;;;;;;;8.21;100.00;100939.34;5046769;28;20028;-84
2021/11/07 01:17:09;;;;;;;15.63;12.40;;;;;;;8.26;100.00;100945.03;5016761;28;20380;-82
2021/11/07 01:19:37;;;;;;;14.15;11.00;;;;;;;8.29;100.00;100934.34;5012497;28;20033;-83
2021/11/07 01:22:06;;;;;;;13.68;10.55;;;;;;;8.31;100.00;100931.63;5029705;28;20036;-84
2021/11/07 01:24:35;;;;;;;12.15;10.20;;;;;;;8.24;100.00;100917.38;5028789;28;20029;-82
2021/11/07 01:27:11;;;;;;;13.98;9.48;;;;;;;8.36;100.00;100932.88;5037537;28;20135;-83
2021/11/07 01:29:42;;;;;;;11.20;9.75;;;;;;;8.35;100.00;100917.31;5037060;28;20033;-83
2021/11/07 01:32:08;;;;;;;12.13;9.93;;;;;;;8.30;100.00;100903.81;5044096;28;20537;-84
2021/11/07 01:37:05;;;;;;;13.68;9.52;;;;;;;8.44;100.00;100915.75;5028901;28;20094;-84
2021/11/07 01:39:45;;;;;;;12.65;9.48;;;;;;;8.29;100.00;100889.91;5042311;28;20030;-84
2021/11/07 01:42:18;;;;;;;10.52;9.27;;;;;;;8.42;100.00;100909.81;5044214;28;20037;-84
2021/11/07 01:44:55;;;;;;;11.27;9.20;;;;;;;8.43;100.00;100909.69;5054687;28;20040;-84
2021/11/07 01:47:23;;;;;;;10.63;9.02;;;;;;;8.24;100.00;100881.63;5013730;28;20147;-84
2021/11/07 01:49:48;;;;;;;11.18;8.52;;;;;;;8.46;100.00;100906.00;5040661;28;20488;-83
2021/11/07 01:52:15;;;;;;;9.45;8.05;;;;;;;8.41;100.00;100892.47;5060913;28;20040;-83
2021/11/07 01:54:54;;;;;;;9.02;7.55;;;;;;;8.49;100.00;100890.06;5038402;28;20037;-81
2021/11/07 01:57:25;;;;;;;9.40;7.60;;;;;;;8.56;100.00;100888.59;5046265;28;20025;-85
2021/11/07 01:59:56;;;;;;;8.07;7.22;;;;;;;8.54;100.00;100880.03;5062911;28;20041;-84
2021/11/07 02:02:29;;;;;;;8.82;7.85;;;;;;;8.54;100.00;100880.88;5038691;28;20041;-85
2021/11/07 02:04:55;;;;;;;10.68;8.10;;;;;;;8.45;100.00;100854.69;5024255;28;20042;-83
2021/11/07 02:07:21;;;;;;;8.88;7.50;;;;;;;8.47;100.00;100864.03;5061450;28;20028;-87
2021/11/07 02:09:47;;;;;;;9.40;7.78;;;;;;;8.51;100.00;100859.38;5058274;28;20041;-86
2021/11/07 02:12:12;;;;;;;9.05;7.38;;;;;;;8.42;100.00;100841.84;5054757;28;20021;-87
2021/11/07 02:14:39;;;;;;;10.10;8.05;;;;;;;8.55;100.00;100839.84;5051661;23;20692;-75
2021/11/07 02:17:06;;;;;;;10.07;7.88;;;;;;;8.52;100.00;100850.59;4993935;28;20051;-75
2021/11/07 02:19:32;;;;;;;10.27;7.53;;;;;;;8.49;100.00;100819.47;5008505;28;20038;-75
2021/11/07 02:22:00;;;;;;;9.15;8.18;;;;;;;8.53;100.00;100824.31;4993451;28;20037;-75
2021/11/07 02:24:27;;;;;;;8.40;7.50;;;;;;;8.54;100.00;100812.88;4982002;28;20046;-74
2021/11/07 02:26:56;;;;;;;10.02;7.70;;;;;;;8.60;100.00;100826.41;5009288;28;20490;-76
2021/11/07 02:29:24;;;;;;;10.43;7.68;;;;;;;8.57;100.00;100814.44;5000867;28;20030;-77
2021/11/07 02:31:52;;;;;;;11.75;7.50;;;;;;;8.56;100.00;100818.00;5001301;28;21709;-75
2021/11/07 02:34:18;;;;;;;11.48;7.65;;;;;;;8.57;100.00;100812.63;4979958;28;20050;-76
2021/11/07 02:36:44;;;;;;;9.82;7.80;;;;;;;8.61;100.00;100802.75;4994918;28;20093;-75
2021/11/07 02:39:15;;;;;;;13.77;7.80;;;;;;;8.63;100.00;100806.06;4981358;28;20096;-76
2021/11/07 02:41:43;;;;;;;8.07;7.07;;;;;;;8.65;100.00;100803.31;4992291;28;20042;-74
2021/11/07 02:44:09;;;;;;;8.48;7.35;;;;;;;8.68;100.00;100787.34;5008819;28;20038;-74
2021/11/07 02:46:35;;;;;;;7.53;6.63;;;;;;;8.61;100.00;100779.22;4986110;28;20337;-75
2021/11/07 02:49:05;;;;;;;10.45;6.60;;;;;;;8.69;100.00;100783.78;4992696;28;20072;-74
2021/11/07 02:51:36;;;;;;;8.95;6.60;;;;;;;8.67;100.00;100789.13;4974718;28;20046;-74
2021/11/07 02:54:07;;;;;;;7.22;6.45;;;;;;;8.69;100.00;100789.81;4966470;28;20133;-74
2021/11/07 02:56:33;;;;;;;8.85;6.57;;;;;;;8.71;100.00;100781.84;4987337;28;20057;-74
2021/11/07 02:59:00;;;;;;;7.35;5.70;;;;;;;8.73;100.00;100772.09;5005797;28;20095;-74
2021/11/07 03:01:27;;;;;;;7.28;5.50;;;;;;;8.72;100.00;100771.25;5004844;28;20030;-74
2021/11/07 03:04:00;;;;;;;6.70;6.00;;;;;;;8.71;100.00;100774.00;5005755;28;20029;-75
2021/11/07 03:06:31;;;;;;;6.20;5.47;;;;;;;8.66;100.00;100758.69;4961951;28;20053;-75
2021/11/07 03:08:57;;;;;;;7.25;5.22;;;;;;;8.72;100.00;100771.25;4992034;28;20514;-75
2021/11/07 03:11:23;;;;;;;8.15;5.70;;;;;;;8.70;100.00;100760.13;4984332;28;20496;-75
2021/11/07 03:13:59;;;;;;;7.28;5.65;;;;;;;8.66;100.00;100766.53;4991394;28;20124;-74
2021/11/07 03:16:35;;;;;;;6.07;5.20;;;;;;;8.67;100.00;100756.94;4988078;28;20790;-74
2021/11/07 03:19:01;;;;;;;8.13;5.68;;;;;;;8.66;100.00;100750.03;5009377;28;20495;-74
2021/11/07 03:21:27;;;;;;;6.00;5.35;;;;;;;8.63;100.00;100732.84;5004145;28;20034;-75
2021/11/07 03:23:53;;;;;;;7.78;6.05;;;;;;;8.62;100.00;100731.16;4995194;28;20038;-77
2021/11/07 03:26:24;;;;;;;6.05;4.95;;;;;;;8.61;100.00;100739.16;4992211;28;20117;-75
2021/11/07 03:28:53;;;;;;;5.45;4.70;;;;;;;8.55;100.00;100733.50;4991726;28;20042;-75
2021/11/07 03:31:32;;;;;;;5.78;4.47;;;;;;;8.56;100.00;100744.78;5001883;28;20026;-74
2021/11/07 03:34:03;;;;;;;6.78;4.78;;;;;;;8.54;100.00;100744.09;4986614;28;20045;-74
2021/11/07 03:36:42;;;;;;;5.72;4.53;;;;;;;8.51;100.00;100747.81;4970379;28;20840;-74
2021/11/07 03:39:10;;;;;;;7.55;4.47;;;;;;;8.45;100.00;100750.13;4965042;28;20454;-74
2021/11/07 03:41:36;;;;;;;6.00;4.53;;;;;;;8.44;100.00;100753.69;4989790;28;20511;-73
2021/11/07 03:44:02;;;;;;;5.75;4.55;;;;;;;8.45;100.00;100729.22;5007052;28;20041;-74
2021/11/07 03:46:29;;;;;;;6.10;5.05;;;;;;;8.30;100.00;100753.03;5003519;28;20030;-75
2021/11/07 03:48:55;;;;;;;5.53;4.00;;;;;;;8.36;100.00;100742.09;5001076;28;20384;-75
2021/11/07 03:51:23;;;;;;;7.47;4.53;;;;;;;8.33;100.00;100725.84;4986908;28;20045;-74
2021/11/07 03:53:50;;;;;;;4.60;4.15;;;;;;;8.34;100.00;100751.84;4973913;28;20037;-75
2021/11/07 03:56:16;;;;;;;8.85;4.65;;;;;;;8.34;100.00;100756.22;5004773;28;20038;-75
2021/11/07 03:58:42;;;;;;;7.85;4.00;;;;;;;8.33;100.00;100750.19;4961410;28;20041;-74
2021/11/07 04:01:09;;;;;;;10.77;3.42;;;;;;;8.31;100.00;100753.91;4990624;28;20038;-74
2021/11/07 04:03:35;;;;;;;5.93;3.80;;;;;;;8.25;100.00;100751.78;4990609;28;20115;-77
2021/11/07 04:06:02;;;;;;;7.25;4.05;;;;;;;8.26;100.00;100746.44;5009294;28;20038;-74
2021/11/07 04:08:28;;;;;;;5.82;3.50;;;;;;;8.27;100.00;100736.81;5003201;28;20072;-73
2021/11/07 04:10:54;;;;;;;6.97;3.10;;;;;;;8.27;100.00;100748.09;4989188;28;20128;-74
2021/11/07 04:13:20;;;;;;;5.68;3.38;;;;;;;8.31;100.00;100720.75;5004051;28;20403;-74
2021/11/07 04:15:46;;;;;;;8.25;3.00;;;;;;;8.33;100.00;100725.84;5007830;28;20026;-74
2021/11/07 04:18:11;;;;;;;6.72;2.80;;;;;;;8.28;100.00;100705.31;5006476;28;20406;-74
2021/11/07 04:20:37;;;;;;;4.20;2.38;;;;;;;8.26;100.00;100714.25;4977693;28;20446;-74
2021/11/07 04:23:04;;;;;;;5.93;2.38;;;;;;;8.25;100.00;100710.81;5003640;28;20099;-76
2021/11/07 04:25:30;;;;;;;6.13;2.60;;;;;;;8.21;100.00;100721.66;4999258;28;20034;-79
2021/11/07 04:27:56;;;;;;;5.15;2.10;;;;;;;8.10;100.00;100712.13;4993432;28;20109;-75
2021/11/07 04:30:22;;;;;;;7.25;1.98;;;;;;;8.07;100.00;100718.44;4970101;28;20038;-76
2021/11/07 04:32:48;;;;;;;3.22;1.80;;;;;;;8.07;100.00;100705.38;5005793;28;20022;-75
2021/11/07 04:35:14;;;;;;;7.88;2.22;;;;;;;8.04;100.00;100707.41;4985546;28;20037;-73
2021/11/07 04:37:42;;;;;;;8.00;1.85;;;;;;;7.96;100.00;100701.06;4992200;28;20049;-73
2021/11/07 04:40:11;;;;;;;5.90;1.95;;;;;;;7.97;100.00;100699.28;5007558;28;20045;-73
2021/11/07 04:42:37;;;;;;;7.13;1.58;;;;;;;7.97;100.00;100694.06;4990404;28;20088;-77
2021/11/07 04:45:04;;;;;;;7.07;1.90;;;;;;;7.91;100.00;100692.81;5004968;28;20593;-77
2021/11/07 04:47:31;;;;;;;7.25;2.20;;;;;;;7.92;100.00;100689.22;4986695;28;20061;-74
2021/11/07 04:49:57;;;;;;;8.20;1.58;;;;;;;7.90;100.00;100687.72;4984439;28;20040;-73
2021/11/07 04:52:22;;;;;;;7.18;1.52;;;;;;;7.89;100.00;100686.03;5003230;28;20026;-72
2021/11/07 04:54:48;;;;;;;7.65;1.52;;;;;;;7.86;100.00;100688.94;5003314;28;20030;-75
2021/11/07 04:57:14;;;;;;;9.48;2.17;;;;;;;7.79;100.00;100691.22;4988330;28;20083;-75
2021/11/07 04:59:39;;;;;;;11.25;1.92;;;;;;;7.83;100.00;100676.94;5002771;28;20044;-75
2021/11/07 05:02:05;;;;;;;13.63;1.60;;;;;;;7.78;100.00;100673.91;5005577;28;20707;-74
2021/11/07 05:04:31;;;;;;;11.20;1.98;;;;;;;7.73;100.00;100676.09;4972758;28;20070;-74
2021/11/07 05:06:56;;;;;;;14.18;2.13;;;;;;;7.73;100.00;100673.47;4985942;28;20045;-75
2021/11/07 05:09:22;;;;;;;12.23;1.92;;;;;;;7.77;100.00;100680.09;5005288;28;20042;-77
2021/11/07 05:11:48;;;;;;;14.93;2.42;;;;;;;7.90;100.00;100674.66;4991754;28;20034;-74
2021/11/07 05:14:15;;;;;;;12.30;1.60;;;;;;;7.92;100.00;100678.78;5007901;28;20087;-74
2021/11/07 05:16:40;;;;;;;13.40;1.90;;;;;;;7.97;100.00;100679.22;4974463;28;20085;-73
2021/11/07 05:19:06;;;;;;;15.52;2.55;;;;;;;7.98;100.00;100675.63;4989852;28;20464;-75
2021/11/07 05:21:31;;;;;;;14.25;2.10;;;;;;;7.96;100.00;100684.56;5004536;28;20041;-73
2021/11/07 05:23:57;;;;;;;13.95;2.47;;;;;;;8.04;100.00;100669.06;4987874;28;20099;-77
2021/11/07 05:26:23;;;;;;;8.00;2.03;;;;;;;8.17;100.00;100681.91;5000938;28;20627;-74
2021/11/07 05:28:49;;;;;;;15.35;2.60;;;;;;;8.18;100.00;100665.28;5001637;28;20029;-75
2021/11/07 05:31:16;;;;;;;16.33;2.67;;;;;;;8.21;100.00;100669.41;4985074;28;20030;-75
2021/11/07 05:33:41;;;;;;;10.85;3.13;;;;;;;8.16;100.00;100662.78;4974381;28;20037;-74
2021/11/07 05:36:07;;;;;;;15.35;3.42;;;;;;;8.15;100.00;100661.13;4984270;28;20037;-73
2021/11/07 05:38:33;;;;;;;13.48;3.30;;;;;;;8.10;100.00;100676.38;4986374;28;20538;-75
2021/11/07 05:40:59;;;;;;;13.05;3.63;;;;;;;8.11;100.00;100680.63;4989793;28;20132;-75
2021/11/07 05:43:25;;;;;;;13.95;3.95;;;;;;;8.11;100.00;100670.19;4980955;28;20048;-76
2021/11/07 05:45:51;;;;;;;15.70;3.88;;;;;;;8.10;100.00;100663.31;4986535;28;20038;-76
2021/11/07 05:48:17;;;;;;;13.70;3.97;;;;;;;8.12;100.00;100669.25;4980382;28;20041;-76
2021/11/07 05:50:45;;;;;;;15.25;3.92;;;;;;;8.14;100.00;100661.28;5003921;28;20162;-73
2021/11/07 05:53:11;;;;;;;9.15;3.95;;;;;;;8.18;100.00;100662.66;4987758;28;20034;-73
2021/11/07 05:55:36;;;;;;;14.43;4.05;;;;;;;8.04;100.00;100668.25;5004726;28;20156;-76
2021/11/07 05:58:03;;;;;;;13.52;3.58;;;;;;;8.05;100.00;100677.75;4968707;28;20038;-73
2021/11/07 06:00:29;;;;;;;20.70;4.18;;;;;;;7.98;100.00;100685.25;4968282;28;20033;-75
2021/11/07 06:02:54;;;;;;;18.67;3.90;;;;;;;7.98;100.00;100693.91;4982885;28;20033;-74
2021/11/07 06:05:20;;;;;;;17.55;3.15;;;;;;;7.99;100.00;100686.94;4989501;28;20091;-76
2021/11/07 06:07:47;;;;;;;16.20;3.58;;;;;;;8.00;100.00;100670.28;4995475;28;20034;-75
2021/11/07 06:10:14;;;;;;;24.52;3.72;;;;;;;7.94;100.00;100683.88;4991754;28;20052;-76
2021/11/07 06:12:40;;;;;;;19.92;3.92;;;;;;;7.88;100.00;100679.19;4969252;28;20046;-73
2021/11/07 06:15:07;;;;;;;13.15;3.35;;;;;;;7.75;100.00;100675.00;4992283;28;20080;-74
2021/11/07 06:17:33;;;;;;;16.33;2.97;;;;;;;7.86;100.00;100666.25;4974774;28;20039;-74
2021/11/07 06:19:59;;;;;;;11.00;2.72;;;;;;;7.93;100.00;100676.97;4989158;28;20059;-76
2021/11/07 06:22:24;;;;;;;11.52;2.80;;;;;;;7.94;100.00;100681.25;4987510;28;20483;-75
2021/11/07 06:24:50;;;;;;;18.23;2.92;;;;;;;7.91;100.00;100689.34;5005263;28;20030;-75
2021/11/07 06:27:17;;;;;;;12.90;2.55;;;;;;;7.83;100.00;100682.16;4994513;28;20095;-74
2021/11/07 06:29:43;;;;;;;19.80;3.25;;;;;;;7.81;100.00;100694.53;4974370;28;20057;-73
2021/11/07 06:32:10;;;;;;;17.25;3.42;;;;;;;7.75;100.00;100695.88;5003174;28;20045;-75
2021/11/07 06:34:37;;;;;;;11.57;2.80;;;;;;;7.67;100.00;100698.31;4998796;28;20480;-73
2021/11/07 06:37:08;;;;;;;16.60;3.72;;;;;;;7.68;100.00;100691.31;5009653;28;20108;-74
2021/11/07 06:39:34;;;;;;;22.65;2.90;;;;;;;7.70;100.00;100705.88;4989365;28;20041;-73
2021/11/07 06:42:00;;;;;;;14.48;2.78;;;;;;;7.70;100.00;100718.09;4992636;28;20116;-74
2021/11/07 06:44:26;;;;;;;17.25;3.13;;;;;;;7.79;100.00;100720.75;4956647;28;20133;-72
2021/11/07 06:46:51;;;;;;;30.92;3.45;;;;;;;7.95;100.00;100681.13;5006159;28;20045;-74
2021/11/07 06:49:17;;;;;;;14.57;2.22;;;;;;;7.90;100.00;100677.25;4990726;28;20403;-74
2021/11/07 06:51:44;;;;;;;26.10;2.80;;;;;;;7.82;100.00;100674.47;5011879;28;20065;-74
2021/11/07 06:54:10;;;;;;;19.75;3.13;;;;;;;7.75;100.00;100693.25;4995984;28;20042;-76
2021/11/07 06:56:36;;;;;;;23.13;2.75;;;;;;;7.62;100.00;100699.66;4981318;28;20045;-75
2021/11/07 06:59:03;;;;;;;21.35;2.58;;;;;;;7.52;100.00;100704.81;5000479;28;20037;-74
2021/11/07 07:01:30;;;;;;;23.48;2.92;;;;;;;7.41;100.00;100708.31;4988033;28;20046;-74
2021/11/07 07:03:56;;;;;;;23.63;3.20;;;;;;;7.34;100.00;100704.53;4986254;28;20080;-74
2021/11/07 07:06:22;;;;;;;29.05;3.50;;;;;;;7.28;100.00;100711.09;4990159;28;20042;-75
2021/11/07 07:08:53;;;;;;;30.08;3.50;;;;;;;7.33;100.00;100711.56;5008005;28;20524;-75
2021/11/07 07:14:06;;;;;;;30.85;3.70;;;;;;;7.44;100.00;100702.00;4989182;28;20030;-76
2021/11/07 07:30:14;;;;;;;29.63;3.35;;;;;;;7.45;100.00;100712.31;4966952;28;20041;-72
2021/11/07 07:35:06;;;;;;;32.38;3.28;;;;;;;7.45;100.00;100714.09;4988989;28;20034;-75
2021/11/07 07:37:32;;;;;;;22.30;3.25;;;;;;;7.50;100.00;100720.59;5006872;28;20056;-75
2021/11/07 07:39:58;;;;;;;26.85;3.22;;;;;;;7.54;100.00;100719.38;4991384;28;20495;-75
2021/11/07 07:42:24;;;;;;;29.17;4.05;;;;;;;7.60;100.00;100718.88;5004584;28;20081;-76
2021/11/07 07:44:52;;;;;;;29.02;3.42;;;;;;;7.75;100.00;100726.38;4985039;28;20113;-73
2021/11/07 07:47:19;;;;;;;25.08;3.45;;;;;;;7.78;100.00;100733.97;5003882;28;20046;-75
2021/11/07 07:49:48;;;;;;;23.45;3.50;;;;;;;7.83;100.00;100723.94;4985515;28;20066;-75
2021/11/07 07:52:14;;;;;;;33.35;3.88;;;;;;;7.96;100.00;100727.19;4971478;28;20034;-74
2021/11/07 07:54:40;;;;;;;20.35;3.55;;;;;;;8.06;100.00;100726.41;4988185;28;20029;-73
2021/11/07 07:57:06;;;;;;;27.38;3.60;;;;;;;8.05;100.00;100733.41;4988731;28;20092;-74
2021/11/07 07:59:31;;;;;;;20.45;3.03;;;;;;;8.07;100.00;100730.69;4984187;28;20121;-76
2021/11/07 08:01:58;;;;;;;19.60;2.95;;;;;;;8.12;100.00;100726.72;4973693;28;20120;-76
2021/11/07 08:04:25;;;;;;;18.05;3.05;;;;;;;8.10;100.00;100731.25;4985060;28;20125;-76
2021/11/07 08:06:51;;;;;;;20.65;2.65;;;;;;;8.00;100.00;100735.59;5003455;28;20116;-75
2021/11/07 08:09:16;;;;;;;16.63;2.40;;;;;;;7.90;100.00;100726.88;4969154;28;20042;-76
2021/11/07 08:11:42;;;;;;;17.52;2.75;;;;;;;7.81;100.00;100741.53;4986646;28;20049;-74
2021/11/07 08:14:08;;;;;;;16.30;2.33;;;;;;;7.75;100.00;100735.03;4991078;28;20171;-76
2021/11/07 08:16:35;;;;;;;15.95;2.90;;;;;;;7.83;100.00;100729.16;4979947;28;20034;-77
2021/11/07 08:19:01;;;;;;;16.88;2.30;;;;;;;7.96;100.00;100726.38;5003727;28;20120;-74
2021/11/07 08:21:30;;;;;;;20.15;2.75;;;;;;;8.12;100.00;100718.06;5000830;28;20117;-76
2021/11/07 08:23:56;;;;;;;18.25;2.78;;;;;;;8.41;100.00;100719.94;4988557;28;20030;-75
2021/11/07 08:26:22;;;;;;;19.85;3.40;;;;;;;8.57;100.00;100736.00;4996850;28;21081;-75
2021/11/07 08:28:48;;;;;;;21.63;3.33;;;;;;;8.60;100.00;100743.56;5002188;28;20411;-74
2021/11/07 08:31:24;;;;;;;17.58;2.83;;;;;;;8.56;100.00;100744.78;4972994;28;20037;-74
2021/11/07 08:33:50;;;;;;;18.60;3.10;;;;;;;8.43;100.00;100738.97;4956455;28;20399;-74
2021/11/07 08:36:19;;;;;;;19.15;3.17;;;;;;;8.35;100.00;100737.81;4980669;28;20451;-75
2021/11/07 08:38:52;;;;;;;15.90;2.53;;;;;;;8.45;100.00;100739.66;4998610;28;20547;-76
2021/11/07 08:41:19;;;;;;;;;;;;;;;8.55;100.00;100741.34;5003199;28;20065;-76
2021/11/07 09:00:29;;;;;;;21.25;3.22;;;;;;;8.99;100.00;100746.25;4986749;28;20040;-74
2021/11/07 09:03:15;;;;;;;27.60;4.03;;;;;;;9.12;100.00;100751.22;4987192;28;20052;-75
2021/11/07 09:06:01;;;;;;;17.73;3.25;;;;;;;9.03;100.00;100742.41;5009053;28;20603;-75
2021/11/07 09:08:27;;;;;;;22.63;3.65;;;;;;;9.26;100.00;100747.38;4988532;28;20414;-74
2021/11/07 09:10:55;;;;;;;29.38;4.00;;;;;;;9.47;100.00;100745.41;4989099;28;20566;-77
2021/11/07 09:13:21;;;;;;;24.17;3.30;;;;;;;9.62;100.00;100755.47;4989687;28;20136;-74
2021/11/07 09:15:49;;;;;;;26.63;3.40;;;;;;;9.67;100.00;100754.09;4982079;28;20790;-73
2021/11/07 09:18:16;;;;;;;24.17;3.63;;;;;;;9.75;100.00;100750.75;4979903;28;20049;-76
2021/11/07 09:20:58;;;;;;;24.58;3.55;;;;;;;9.81;100.00;100754.63;4972854;28;20033;-77
2021/11/07 09:23:32;;;;;;;22.40;3.83;;;;;;;9.79;100.00;100748.69;4988888;28;20054;-76
2021/11/07 09:28:39;;;;;;;23.77;3.38;;;;;;;9.81;100.00;100760.66;5000223;28;20446;-75
2021/11/07 09:31:13;;;;;;;25.25;3.30;;;;;;;9.65;100.00;100745.53;4990379;28;20640;-75
2021/11/07 09:34:05;;;;;;;26.63;4.03;;;;;;;9.51;100.00;100746.81;4971003;28;20042;-76
2021/11/07 09:36:37;;;;;;;24.27;3.42;;;;;;;9.63;100.00;100754.53;4959710;28;20042;-74
2021/11/07 09:39:18;;;;;;;25.92;3.47;;;;;;;9.67;100.00;100759.31;5004760;28;20530;-75
2021/11/07 09:44:20;;;;;;;26.30;3.40;;;;;;;9.61;100.00;100753.84;4983110;28;20444;-73
2021/11/07 09:46:52;;;;;;;20.75;3.70;;;;;;;9.66;100.00;100760.31;4974974;28;20513;-76
2021/11/07 09:49:25;;;;;;;16.55;2.95;;;;;;;9.69;100.00;100764.44;5004542;28;20046;-76
2021/11/07 09:51:57;;;;;;;23.17;3.67;;;;;;;9.66;100.00;100764.69;4980466;28;20096;-75
2021/11/07 09:54:24;;;;;;;19.58;3.17;;;;;;;9.62;100.00;100765.94;5005330;28;20097;-75
2021/11/07 09:56:52;;;;;;;21.50;3.50;;;;;;;9.64;100.00;100766.63;4976385;28;20376;-77
2021/11/07 09:59:18;;;;;;;24.15;3.50;;;;;;;9.74;100.00;100764.84;4977452;28;20124;-76
2021/11/07 10:01:45;;;;;;;21.13;2.88;;;;;;;9.78;100.00;100760.97;5003785;28;20049;-74
2021/11/07 10:04:13;;;;;;;25.65;3.15;;;;;;;9.69;98.92;100761.81;4974251;28;20044;-76
2021/11/07 10:06:50;;;;;;;23.30;3.08;;;;;;;9.49;100.00;100780.16;5007263;28;20403;-75
2021/11/07 10:09:38;;;;;;;15.95;2.80;;;;;;;9.22;96.65;100764.31;4992056;28;20501;-75
2021/11/07 10:12:10;;;;;;;22.13;3.13;;;;;;;8.93;100.00;100759.88;4959549;28;20040;-74
2021/11/07 10:14:46;;;;;;;22.90;2.78;;;;;;;8.69;100.00;100755.84;4974607;28;20049;-75
2021/11/07 10:17:24;;;;;;;21.98;3.70;;;;;;;8.58;100.00;100755.94;4958821;28;20041;-74
2021/11/07 10:20:03;;;;;;;14.27;2.58;;;;;;;8.48;100.00;100755.09;5004534;28;20038;-74
2021/11/07 10:22:32;;;;;;;18.85;3.35;;;;;;;8.45;100.00;100755.34;4966727;28;20100;-75
2021/11/07 10:24:59;;;;;;;19.77;2.50;;;;;;;8.50;100.00;100768.84;4986876;28;20109;-74
2021/11/07 10:27:26;;;;;;;17.70;2.40;;;;;;;8.76;100.00;100774.44;4992825;28;20074;-76
2021/11/07 10:30:04;;;;;;;12.85;2.40;;;;;;;9.20;100.00;100764.44;4975735;28;20400;-75
2021/11/07 10:32:40;;;;;;;13.80;2.85;;;;;;;9.74;100.00;100772.69;5004185;28;20036;-72
2021/11/07 10:38:22;;;;;;;11.27;2.30;;;;;;;10.67;96.20;100778.88;5000791;28;20029;-73
2021/11/07 10:40:46;;;;;;;18.73;2.65;;;;;;;10.76;96.98;100777.19;4986019;28;20042;-75
2021/11/07 10:54:24;;;;;;;23.42;2.97;;;;;;;10.75;93.00;100766.84;4990573;28;20034;-76
2021/11/07 10:57:08;;;;;;;;;;;;;;;10.71;92.63;100775.00;4974718;28;20037;-76
2021/11/07 10:59:37;;;;;;;18.33;3.40;;;;;;;10.75;92.05;100766.84;5007054;28;19952;-74
2021/11/07 11:02:32;;;;;;;25.17;3.03;;;;;;;10.73;92.91;100764.34;5001766;28;20403;-76
2021/11/07 11:05:07;;;;;;;20.00;3.08;;;;;;;10.89;91.49;100772.41;5005438;28;20041;-74
2021/11/07 11:07:33;;;;;;;21.98;3.70;;;;;;;11.06;93.18;100775.22;4983265;28;20046;-75
2021/11/07 11:10:16;;;;;;;27.95;3.58;;;;;;;11.08;89.61;100773.28;4975966;28;20029;-72
2021/11/07 11:13:07;;;;;;;16.58;3.20;;;;;;;10.94;92.75;100764.09;4966999;28;20565;-75
2021/11/07 11:15:48;;;;;;;22.42;3.38;;;;;;;10.68;93.02;100758.72;5002023;28;20272;-75
2021/11/07 11:24:37;;;;;;;15.38;2.80;;;;;;;10.64;90.90;100742.47;4987458;28;20507;-76
2021/11/07 11:26:50;;;;;;;16.05;2.47;;;;;;;10.83;86.25;100759.91;4978865;28;20049;-75
2021/11/07 11:32:06;;;;;;;17.90;2.95;;;;;;;11.13;86.07;100754.44;4991617;28;20045;-75
2021/11/07 11:34:38;;;;;;;17.30;2.78;;;;;;;11.05;89.85;100760.44;4991249;28;20045;-74
2021/11/07 11:40:23;;;;;;;11.20;2.13;;;;;;;10.51;85.66;100762.97;4947092;28;20491;-75
2021/11/07 11:45:11;;;;;;;16.20;2.33;;;;;;;10.07;92.01;100776.59;5001382;28;20029;-75
2021/11/07 11:48:09;;;;;;;24.52;3.05;;;;;;;9.64;97.53;100783.16;4985380;28;20189;-74
2021/11/07 11:58:18;;;;;;;20.25;2.45;;;;;;;9.25;100.00;100783.19;4988852;28;20101;-75
2021/11/07 12:00:56;;;;;;;21.42;3.00;;;;;;;9.41;100.00;100771.34;4969942;28;20068;-75
2021/11/07 12:03:42;;;;;;;18.40;3.33;;;;;;;9.77;100.00;100768.97;4982600;28;20052;-75
2021/11/07 12:06:31;;;;;;;17.45;3.10;;;;;;;10.09;100.00;100756.31;4972821;28;20718;-74
2021/11/07 12:09:35;;;;;;;20.48;3.00;;;;;;;10.26;100.00;100744.25;4982191;28;20045;-74
2021/11/07 12:15:09;;;;;;;18.70;2.60;;;;;;;10.52;100.00;100746.25;4986570;28;20099;-74
2021/11/07 12:17:40;;;;;;;20.33;2.20;;;;;;;10.73;99.19;100748.63;4973232;28;20042;-75
2021/11/07 12:20:36;;;;;;;17.05;2.72;;;;;;;10.67;95.22;100746.59;4976601;28;20136;-75
2021/11/07 12:23:28;;;;;;;12.45;2.20;;;;;;;10.34;97.47;100743.59;4996944;28;20072;-73
2021/11/07 12:25:56;;;;;;;12.40;2.22;;;;;;;10.38;100.00;100747.56;5004443;28;20030;-75
2021/11/07 12:28:59;;;;;;;15.88;2.22;;;;;;;10.71;96.43;100740.06;4960307;28;20065;-74
2021/11/07 12:31:25;;;;;;;10.35;2.03;;;;;;;11.21;95.79;100746.66;4922018;29;20127;-74
2021/11/07 12:34:40;;;;;;;16.98;2.40;;;;;;;11.63;87.78;100740.75;4986253;28;20038;-76
2021/11/07 12:42:20;;;;;;;18.85;3.15;;;;;;;12.30;84.59;100735.75;5004138;28;20029;-76
2021/11/07 12:44:54;;;;;;;22.52;3.17;;;;;;;12.42;81.96;100733.66;4994167;28;20049;-75
2021/11/07 12:47:27;;;;;;;15.15;3.30;;;;;;;12.80;81.52;100745.44;4989155;28;20044;-75
2021/11/07 12:50:06;;;;;;;20.17;3.50;;;;;;;11.89;85.22;100746.00;5000504;28;20034;-75
2021/11/07 12:52:50;;;;;;;17.70;3.08;;;;;;;12.23;84.72;100739.97;4965130;28;20561;-75
2021/11/07 12:55:33;;;;;;;24.02;3.10;;;;;;;12.44;81.26;100743.00;4987174;28;20069;-74
2021/11/07 12:57:58;;;;;;;19.35;3.22;;;;;;;11.74;83.11;100739.69;5002613;28;20026;-76
2021/11/07 13:00:24;;;;;;;16.45;3.22;;;;;;;11.19;85.90;100745.94;4968829;28;20052;-77
2021/11/07 13:02:49;;;;;;;22.95;3.28;;;;;;;10.65;88.89;100730.19;5004866;28;20045;-76
2021/11/07 13:05:32;;;;;;;20.60;3.83;;;;;;;10.18;93.75;100736.31;4984366;28;20068;-77
2021/11/07 13:08:00;;;;;;;15.48;2.75;;;;;;;9.74;97.84;100738.66;4995169;28;20100;-76
2021/11/07 13:11:02;;;;;;;22.48;3.08;;;;;;;9.43;100.00;100759.75;4989020;28;20045;-74
2021/11/07 13:13:58;;;;;;;21.40;2.70;;;;;;;9.16;100.00;100742.97;4983559;28;20134;-75
2021/11/07 13:19:15;;;;;;;20.40;3.17;;;;;;;8.99;100.00;100761.13;5004469;28;20180;-75